EIN139 EGCC-EIDW
Flight info
| Callsign | EIN139 |
|---|---|
| Flight time | 0h 36m |
| Altitude | 26000 |
| Route | ASMIM L975 WAL L10 PENIL UL28 LELDO M145 BAGSO BAGSO3R |
| Aircraft | A320/M-SDE3FGHIRWY/LB1 |
Departure
| Time | 2026-04-30 20:44 |
|---|---|
| Airport | Manchester Airport (EGCC) |
Arrival
| Time | 2026-04-30 21:20 |
|---|---|
| Airport | Dublin Airport (EIDW) |
| Time | Latitude | Longitude | Altitude | Speed | Heading |
|---|---|---|---|---|---|
| 2026-04-30 20:24 | 53.35979 | -2.27519 | 247 ft | 0 kts | 96° |
| 2026-04-30 20:31 | 53.35981 | -2.27543 | 247 ft | 4 kts | 96° |
| 2026-04-30 20:32 | 53.36019 | -2.27622 | 247 ft | 4 kts | 183° |
| 2026-04-30 20:32 | 53.36009 | -2.27625 | 247 ft | 4 kts | 185° |
| 2026-04-30 20:33 | 53.36000 | -2.27626 | 247 ft | 0 kts | 185° |
| 2026-04-30 20:36 | 53.35972 | -2.27631 | 247 ft | 9 kts | 185° |
| 2026-04-30 20:36 | 53.35882 | -2.27645 | 247 ft | 17 kts | 185° |
| 2026-04-30 20:36 | 53.35752 | -2.27667 | 247 ft | 4 kts | 192° |
| 2026-04-30 20:37 | 53.35731 | -2.27687 | 247 ft | 3 kts | 217° |
| 2026-04-30 20:37 | 53.35708 | -2.27726 | 247 ft | 9 kts | 228° |
| 2026-04-30 20:37 | 53.35646 | -2.27859 | 247 ft | 19 kts | 231° |
| 2026-04-30 20:37 | 53.35531 | -2.28086 | 239 ft | 31 kts | 224° |
| 2026-04-30 20:38 | 53.35340 | -2.28179 | 238 ft | 22 kts | 199° |
| 2026-04-30 20:38 | 53.35194 | -2.28381 | 232 ft | 33 kts | 232° |
| 2026-04-30 20:38 | 53.35034 | -2.28703 | 232 ft | 26 kts | 227° |
| 2026-04-30 20:39 | 53.34801 | -2.29117 | 216 ft | 21 kts | 230° |
| 2026-04-30 20:39 | 53.34725 | -2.29277 | 215 ft | 18 kts | 232° |
| 2026-04-30 20:39 | 53.34671 | -2.29324 | 214 ft | 0 kts | 189° |
| 2026-04-30 20:42 | 53.34648 | -2.29330 | 208 ft | 8 kts | 188° |
| 2026-04-30 20:43 | 53.34565 | -2.29311 | 217 ft | 17 kts | 144° |
| 2026-04-30 20:43 | 53.34591 | -2.29119 | 210 ft | 22 kts | 50° |
| 2026-04-30 20:43 | 53.34609 | -2.29083 | 210 ft | 5 kts | 50° |
| 2026-04-30 20:44 | 53.35018 | -2.28235 | 236 ft | 110 kts | 51° |
| 2026-04-30 20:44 | 53.35622 | -2.27012 | 268 ft | 161 kts | 47° |
| 2026-04-30 20:44 | 53.37150 | -2.23957 | 1473 ft | 171 kts | 58° |
| 2026-04-30 20:45 | 53.38972 | -2.20770 | 2230 ft | 222 kts | 33° |
| 2026-04-30 20:45 | 53.40583 | -2.20225 | 2527 ft | 257 kts | 356° |
| 2026-04-30 20:45 | 53.42335 | -2.21327 | 2954 ft | 282 kts | 330° |
| 2026-04-30 20:46 | 53.47668 | -2.25853 | 5791 ft | 287 kts | 332° |
| 2026-04-30 20:46 | 53.49453 | -2.27406 | 6674 ft | 291 kts | 326° |
| 2026-04-30 20:47 | 53.51753 | -2.32837 | 8255 ft | 292 kts | 277° |
| 2026-04-30 20:47 | 53.52044 | -2.36211 | 9109 ft | 293 kts | 274° |
| 2026-04-30 20:48 | 53.52574 | -2.43116 | 10533 ft | 310 kts | 273° |
| 2026-04-30 20:48 | 53.52855 | -2.46841 | 10784 ft | 333 kts | 274° |
| 2026-04-30 20:48 | 53.53173 | -2.50774 | 11087 ft | 352 kts | 275° |
| 2026-04-30 20:48 | 53.53608 | -2.54885 | 11709 ft | 360 kts | 277° |
| 2026-04-30 20:49 | 53.54120 | -2.59045 | 12433 ft | 366 kts | 278° |
| 2026-04-30 20:49 | 53.54669 | -2.63244 | 13154 ft | 370 kts | 278° |
| 2026-04-30 20:49 | 53.55230 | -2.67492 | 13842 ft | 375 kts | 278° |
| 2026-04-30 20:50 | 53.56340 | -2.76159 | 15047 ft | 383 kts | 277° |
| 2026-04-30 20:50 | 53.56882 | -2.80574 | 15650 ft | 387 kts | 277° |
| 2026-04-30 20:50 | 53.57421 | -2.85034 | 16247 ft | 391 kts | 277° |
| 2026-04-30 20:50 | 53.57961 | -2.89545 | 16837 ft | 395 kts | 277° |
| 2026-04-30 20:51 | 53.58506 | -2.94108 | 17433 ft | 399 kts | 277° |
| 2026-04-30 20:51 | 53.59611 | -3.03367 | 18569 ft | 408 kts | 277° |
| 2026-04-30 20:51 | 53.60173 | -3.08075 | 19087 ft | 411 kts | 276° |
| 2026-04-30 20:52 | 53.60736 | -3.12823 | 19643 ft | 414 kts | 276° |
| 2026-04-30 20:52 | 53.61300 | -3.17603 | 20191 ft | 417 kts | 276° |
| 2026-04-30 20:52 | 53.62434 | -3.27242 | 21274 ft | 422 kts | 276° |
| 2026-04-30 20:53 | 53.63003 | -3.32113 | 21796 ft | 425 kts | 275° |
| 2026-04-30 20:53 | 53.63567 | -3.36958 | 22293 ft | 428 kts | 275° |
| 2026-04-30 20:53 | 53.64142 | -3.41890 | 22792 ft | 431 kts | 275° |
| 2026-04-30 20:54 | 53.65293 | -3.51859 | 23739 ft | 436 kts | 275° |
| 2026-04-30 20:54 | 53.65872 | -3.56888 | 24130 ft | 438 kts | 275° |
| 2026-04-30 20:54 | 53.66452 | -3.61948 | 24533 ft | 440 kts | 275° |
| 2026-04-30 20:55 | 53.67607 | -3.72112 | 25346 ft | 442 kts | 276° |
| 2026-04-30 20:55 | 53.68181 | -3.77217 | 25725 ft | 444 kts | 276° |
| 2026-04-30 20:55 | 53.68756 | -3.82345 | 26048 ft | 445 kts | 276° |
| 2026-04-30 20:56 | 53.69900 | -3.92595 | 26159 ft | 444 kts | 276° |
| 2026-04-30 20:56 | 53.70472 | -3.97721 | 26148 ft | 444 kts | 276° |
| 2026-04-30 20:56 | 53.71585 | -4.07969 | 26149 ft | 442 kts | 273° |
| 2026-04-30 20:57 | 53.71840 | -4.13114 | 26150 ft | 439 kts | 269° |
| 2026-04-30 20:57 | 53.72030 | -4.18259 | 26163 ft | 439 kts | 269° |
| 2026-04-30 20:57 | 53.72222 | -4.23406 | 26141 ft | 439 kts | 269° |
| 2026-04-30 20:58 | 53.72606 | -4.33712 | 26143 ft | 439 kts | 269° |
| 2026-04-30 20:58 | 53.72797 | -4.38859 | 26132 ft | 439 kts | 269° |
| 2026-04-30 20:58 | 53.72988 | -4.44006 | 26131 ft | 439 kts | 269° |
| 2026-04-30 20:58 | 53.73173 | -4.49156 | 26128 ft | 439 kts | 269° |
| 2026-04-30 20:59 | 53.73533 | -4.59436 | 26119 ft | 439 kts | 268° |
| 2026-04-30 20:59 | 53.73710 | -4.64580 | 26118 ft | 439 kts | 268° |
| 2026-04-30 21:00 | 53.74056 | -4.74829 | 25564 ft | 433 kts | 268° |
| 2026-04-30 21:00 | 53.74390 | -4.84898 | 24389 ft | 426 kts | 268° |
| 2026-04-30 21:01 | 53.74713 | -4.94827 | 23200 ft | 420 kts | 268° |
| 2026-04-30 21:01 | 53.74867 | -4.99670 | 22613 ft | 416 kts | 268° |
| 2026-04-30 21:01 | 53.75165 | -5.09377 | 21509 ft | 409 kts | 265° |
| 2026-04-30 21:02 | 53.74994 | -5.14116 | 20994 ft | 399 kts | 256° |
| 2026-04-30 21:02 | 53.74383 | -5.18626 | 20488 ft | 390 kts | 246° |
| 2026-04-30 21:02 | 53.73502 | -5.22938 | 20005 ft | 386 kts | 245° |
| 2026-04-30 21:02 | 53.72627 | -5.27215 | 19494 ft | 384 kts | 245° |
| 2026-04-30 21:03 | 53.71768 | -5.31471 | 19007 ft | 382 kts | 245° |
| 2026-04-30 21:03 | 53.70919 | -5.35701 | 18531 ft | 379 kts | 245° |
| 2026-04-30 21:03 | 53.70070 | -5.39901 | 18004 ft | 377 kts | 245° |
| 2026-04-30 21:03 | 53.69219 | -5.44074 | 17485 ft | 374 kts | 245° |
| 2026-04-30 21:04 | 53.68372 | -5.48196 | 16972 ft | 371 kts | 245° |
| 2026-04-30 21:04 | 53.67683 | -5.52398 | 16474 ft | 372 kts | 252° |
| 2026-04-30 21:04 | 53.66596 | -5.60807 | 15517 ft | 367 kts | 252° |
| 2026-04-30 21:05 | 53.66051 | -5.64990 | 15044 ft | 364 kts | 252° |
| 2026-04-30 21:05 | 53.65497 | -5.69194 | 14566 ft | 361 kts | 252° |
| 2026-04-30 21:05 | 53.64959 | -5.73257 | 14117 ft | 359 kts | 252° |
| 2026-04-30 21:05 | 53.64417 | -5.77351 | 13626 ft | 356 kts | 252° |
| 2026-04-30 21:06 | 53.63878 | -5.81411 | 13121 ft | 353 kts | 252° |
| 2026-04-30 21:06 | 53.63345 | -5.85433 | 12614 ft | 351 kts | 252° |
| 2026-04-30 21:06 | 53.62815 | -5.89428 | 12115 ft | 348 kts | 252° |
| 2026-04-30 21:06 | 53.62287 | -5.93393 | 11618 ft | 345 kts | 252° |
| 2026-04-30 21:07 | 53.61773 | -5.97317 | 11122 ft | 343 kts | 253° |
| 2026-04-30 21:07 | 53.61316 | -6.01245 | 10625 ft | 341 kts | 255° |
| 2026-04-30 21:07 | 53.60900 | -6.05155 | 10140 ft | 338 kts | 255° |
| 2026-04-30 21:07 | 53.60509 | -6.09002 | 9943 ft | 326 kts | 256° |
| 2026-04-30 21:08 | 53.60143 | -6.12654 | 9806 ft | 304 kts | 255° |
| 2026-04-30 21:08 | 53.59798 | -6.16050 | 9475 ft | 288 kts | 255° |
| 2026-04-30 21:08 | 53.59453 | -6.19330 | 8863 ft | 282 kts | 254° |
| 2026-04-30 21:08 | 53.59102 | -6.22560 | 8214 ft | 279 kts | 254° |
| 2026-04-30 21:09 | 53.58869 | -6.24689 | 7773 ft | 279 kts | 254° |
| 2026-04-30 21:09 | 53.58396 | -6.28963 | 6877 ft | 277 kts | 254° |
| 2026-04-30 21:09 | 53.58044 | -6.32145 | 6205 ft | 276 kts | 254° |
| 2026-04-30 21:09 | 53.57812 | -6.34247 | 5735 ft | 276 kts | 254° |
| 2026-04-30 21:10 | 53.57460 | -6.37427 | 5297 ft | 276 kts | 254° |
| 2026-04-30 21:10 | 53.57111 | -6.40604 | 4879 ft | 275 kts | 254° |
| 2026-04-30 21:10 | 53.56652 | -6.44779 | 4411 ft | 271 kts | 253° |
| 2026-04-30 21:10 | 53.56417 | -6.46897 | 4333 ft | 273 kts | 253° |
| 2026-04-30 21:11 | 53.56066 | -6.50042 | 4199 ft | 273 kts | 253° |
| 2026-04-30 21:11 | 53.55716 | -6.53184 | 4074 ft | 273 kts | 253° |
| 2026-04-30 21:11 | 53.55365 | -6.56322 | 3998 ft | 272 kts | 253° |
| 2026-04-30 21:11 | 53.55018 | -6.59418 | 4001 ft | 262 kts | 253° |
| 2026-04-30 21:12 | 53.54700 | -6.62325 | 4002 ft | 245 kts | 253° |
| 2026-04-30 21:12 | 53.54394 | -6.65067 | 4001 ft | 241 kts | 252° |
| 2026-04-30 21:12 | 53.53964 | -6.67722 | 3996 ft | 228 kts | 236° |
| 2026-04-30 21:12 | 53.53031 | -6.69764 | 4001 ft | 215 kts | 212° |
| 2026-04-30 21:13 | 53.51751 | -6.70915 | 4001 ft | 206 kts | 190° |
| 2026-04-30 21:13 | 53.50350 | -6.71111 | 3992 ft | 200 kts | 169° |
| 2026-04-30 21:13 | 53.49040 | -6.70434 | 3926 ft | 197 kts | 156° |
| 2026-04-30 21:13 | 53.47787 | -6.69520 | 3591 ft | 196 kts | 154° |
| 2026-04-30 21:14 | 53.46687 | -6.68238 | 3430 ft | 190 kts | 136° |
| 2026-04-30 21:14 | 53.45952 | -6.66443 | 3297 ft | 186 kts | 118° |
| 2026-04-30 21:14 | 53.45634 | -6.64366 | 3165 ft | 184 kts | 102° |
| 2026-04-30 21:14 | 53.45528 | -6.62266 | 3093 ft | 175 kts | 102° |
| 2026-04-30 21:15 | 53.45431 | -6.60313 | 3014 ft | 161 kts | 103° |
| 2026-04-30 21:15 | 53.45340 | -6.58535 | 2993 ft | 145 kts | 104° |
| 2026-04-30 21:15 | 53.45256 | -6.56919 | 2983 ft | 138 kts | 104° |
| 2026-04-30 21:15 | 53.45171 | -6.55330 | 3002 ft | 136 kts | 104° |
| 2026-04-30 21:16 | 53.45088 | -6.53758 | 3012 ft | 135 kts | 104° |
| 2026-04-30 21:16 | 53.45005 | -6.52188 | 2970 ft | 135 kts | 104° |
| 2026-04-30 21:16 | 53.44922 | -6.50619 | 2860 ft | 135 kts | 104° |
| 2026-04-30 21:16 | 53.44840 | -6.49061 | 2711 ft | 133 kts | 105° |
| 2026-04-30 21:17 | 53.44759 | -6.47516 | 2565 ft | 132 kts | 105° |
| 2026-04-30 21:17 | 53.44677 | -6.45977 | 2374 ft | 132 kts | 105° |
| 2026-04-30 21:17 | 53.44596 | -6.44445 | 2184 ft | 132 kts | 104° |
| 2026-04-30 21:17 | 53.44515 | -6.42916 | 2014 ft | 131 kts | 105° |
| 2026-04-30 21:18 | 53.44433 | -6.41387 | 1844 ft | 132 kts | 105° |
| 2026-04-30 21:18 | 53.44352 | -6.39864 | 1665 ft | 130 kts | 105° |
| 2026-04-30 21:18 | 53.44271 | -6.38353 | 1489 ft | 130 kts | 104° |
| 2026-04-30 21:18 | 53.44189 | -6.36832 | 1307 ft | 132 kts | 102° |
| 2026-04-30 21:19 | 53.44107 | -6.35300 | 1122 ft | 132 kts | 101° |
| 2026-04-30 21:19 | 53.44023 | -6.33748 | 952 ft | 133 kts | 100° |
| 2026-04-30 21:19 | 53.43940 | -6.32216 | 748 ft | 135 kts | 96° |
| 2026-04-30 21:19 | 53.43852 | -6.30638 | 531 ft | 137 kts | 95° |
| 2026-04-30 21:20 | 53.43761 | -6.29039 | 314 ft | 138 kts | 94° |
| 2026-04-30 21:20 | 53.43686 | -6.27458 | 213 ft | 129 kts | 94° |
| 2026-04-30 21:20 | 53.43623 | -6.26253 | 212 ft | 80 kts | 97° |
| 2026-04-30 21:20 | 53.43582 | -6.25611 | 209 ft | 32 kts | 95° |
| 2026-04-30 21:21 | 53.43538 | -6.25252 | 213 ft | 31 kts | 113° |
| 2026-04-30 21:21 | 53.43449 | -6.24999 | 215 ft | 13 kts | 136° |
| 2026-04-30 21:21 | 53.43383 | -6.25142 | 211 ft | 9 kts | 274° |
| 2026-04-30 21:22 | 53.43389 | -6.25242 | 216 ft | 8 kts | 276° |
| 2026-04-30 21:22 | 53.43403 | -6.25460 | 216 ft | 5 kts | 276° |
| 2026-04-30 21:23 | 53.43406 | -6.25510 | 211 ft | 4 kts | 276° |
| 2026-04-30 21:23 | 53.43408 | -6.25550 | 211 ft | 3 kts | 275° |
| 2026-04-30 21:23 | 53.43406 | -6.25617 | 211 ft | 6 kts | 250° |
| 2026-04-30 21:24 | 53.43348 | -6.25640 | 211 ft | 13 kts | 167° |
| 2026-04-30 21:24 | 53.43245 | -6.25564 | 213 ft | 19 kts | 159° |
| 2026-04-30 21:24 | 53.43157 | -6.25501 | 214 ft | 16 kts | 154° |
| 2026-04-30 21:24 | 53.43034 | -6.25405 | 211 ft | 23 kts | 158° |
| 2026-04-30 21:25 | 53.42765 | -6.25221 | 211 ft | 18 kts | 157° |
| 2026-04-30 21:25 | 53.42687 | -6.25082 | 211 ft | 16 kts | 166° |
| 2026-04-30 21:25 | 53.42564 | -6.25003 | 211 ft | 23 kts | 155° |
| 2026-04-30 21:26 | 53.42380 | -6.24747 | 211 ft | 18 kts | 43° |
| 2026-04-30 21:26 | 53.42412 | -6.24634 | 211 ft | 11 kts | 104° |
| 2026-04-30 21:27 | 53.42357 | -6.24532 | 211 ft | 2 kts | 135° |
| 2026-04-30 21:27 | 53.42356 | -6.24530 | 217 ft | 0 kts | 135° |